sensor_id;sensor_type;location;lat;lon;timestamp;P1;durP1;ratioP1;P2;durP2;ratioP2
72517;SDS011;60540;51.178;6.738;2023-03-12T00:02:04;9.73;;;5.05;;
72517;SDS011;60540;51.178;6.738;2023-03-12T00:04:30;10.07;;;5.25;;
72517;SDS011;60540;51.178;6.738;2023-03-12T00:06:56;12.27;;;5.53;;
72517;SDS011;60540;51.178;6.738;2023-03-12T00:09:22;11.93;;;5.47;;
72517;SDS011;60540;51.178;6.738;2023-03-12T00:11:47;11.45;;;5.63;;
72517;SDS011;60540;51.178;6.738;2023-03-12T00:14:13;9.18;;;4.95;;
72517;SDS011;60540;51.178;6.738;2023-03-12T00:16:39;11.00;;;5.20;;
72517;SDS011;60540;51.178;6.738;2023-03-12T00:19:05;13.98;;;5.18;;
72517;SDS011;60540;51.178;6.738;2023-03-12T00:21:30;9.63;;;4.75;;
72517;SDS011;60540;51.178;6.738;2023-03-12T00:23:56;14.27;;;5.68;;
72517;SDS011;60540;51.178;6.738;2023-03-12T00:26:22;7.90;;;4.57;;
72517;SDS011;60540;51.178;6.738;2023-03-12T00:28:48;7.03;;;4.38;;
72517;SDS011;60540;51.178;6.738;2023-03-12T00:31:19;9.05;;;4.55;;
72517;SDS011;60540;51.178;6.738;2023-03-12T00:33:45;6.35;;;3.70;;
72517;SDS011;60540;51.178;6.738;2023-03-12T00:36:14;7.60;;;4.18;;
72517;SDS011;60540;51.178;6.738;2023-03-12T00:38:41;7.55;;;4.13;;
72517;SDS011;60540;51.178;6.738;2023-03-12T00:41:07;9.88;;;3.70;;
72517;SDS011;60540;51.178;6.738;2023-03-12T00:43:33;6.65;;;3.47;;
72517;SDS011;60540;51.178;6.738;2023-03-12T00:45:58;7.25;;;3.40;;
72517;SDS011;60540;51.178;6.738;2023-03-12T00:48:24;9.60;;;3.67;;
72517;SDS011;60540;51.178;6.738;2023-03-12T00:50:50;5.78;;;3.67;;
72517;SDS011;60540;51.178;6.738;2023-03-12T00:53:16;6.78;;;3.38;;
72517;SDS011;60540;51.178;6.738;2023-03-12T00:55:41;9.68;;;3.88;;
72517;SDS011;60540;51.178;6.738;2023-03-12T00:58:07;9.27;;;4.05;;
72517;SDS011;60540;51.178;6.738;2023-03-12T01:00:33;7.40;;;4.38;;
72517;SDS011;60540;51.178;6.738;2023-03-12T01:02:58;9.82;;;3.95;;
72517;SDS011;60540;51.178;6.738;2023-03-12T01:05:24;8.05;;;3.47;;
72517;SDS011;60540;51.178;6.738;2023-03-12T01:07:50;8.00;;;4.00;;
72517;SDS011;60540;51.178;6.738;2023-03-12T01:10:16;6.18;;;3.35;;
72517;SDS011;60540;51.178;6.738;2023-03-12T01:12:44;8.93;;;3.70;;
72517;SDS011;60540;51.178;6.738;2023-03-12T01:15:14;11.32;;;3.88;;
72517;SDS011;60540;51.178;6.738;2023-03-12T01:17:41;6.18;;;3.83;;
72517;SDS011;60540;51.178;6.738;2023-03-12T01:20:07;8.40;;;3.10;;
72517;SDS011;60540;51.178;6.738;2023-03-12T01:22:34;6.93;;;3.28;;
72517;SDS011;60540;51.178;6.738;2023-03-12T01:25:00;6.28;;;3.80;;
72517;SDS011;60540;51.178;6.738;2023-03-12T01:27:26;8.93;;;3.38;;
72517;SDS011;60540;51.178;6.738;2023-03-12T01:29:52;8.73;;;2.80;;
72517;SDS011;60540;51.178;6.738;2023-03-12T01:32:18;5.75;;;2.88;;
72517;SDS011;60540;51.178;6.738;2023-03-12T01:34:44;6.18;;;3.45;;
72517;SDS011;60540;51.178;6.738;2023-03-12T01:37:10;6.25;;;3.33;;
72517;SDS011;60540;51.178;6.738;2023-03-12T01:39:35;4.97;;;2.90;;
72517;SDS011;60540;51.178;6.738;2023-03-12T01:42:01;5.60;;;2.72;;
72517;SDS011;60540;51.178;6.738;2023-03-12T01:44:27;8.23;;;3.40;;
72517;SDS011;60540;51.178;6.738;2023-03-12T01:46:53;6.95;;;3.25;;
72517;SDS011;60540;51.178;6.738;2023-03-12T01:49:32;5.22;;;2.90;;
72517;SDS011;60540;51.178;6.738;2023-03-12T01:52:00;5.68;;;2.92;;
72517;SDS011;60540;51.178;6.738;2023-03-12T01:54:30;4.85;;;2.90;;
72517;SDS011;60540;51.178;6.738;2023-03-12T01:56:57;5.65;;;2.92;;
72517;SDS011;60540;51.178;6.738;2023-03-12T01:59:24;4.35;;;2.75;;
72517;SDS011;60540;51.178;6.738;2023-03-12T02:01:53;7.47;;;2.72;;
72517;SDS011;60540;51.178;6.738;2023-03-12T02:04:20;8.20;;;2.97;;
72517;SDS011;60540;51.178;6.738;2023-03-12T02:06:48;8.40;;;3.80;;
72517;SDS011;60540;51.178;6.738;2023-03-12T02:09:43;5.38;;;2.85;;
72517;SDS011;60540;51.178;6.738;2023-03-12T02:12:11;5.65;;;3.15;;
72517;SDS011;60540;51.178;6.738;2023-03-12T02:14:36;5.07;;;2.92;;
72517;SDS011;60540;51.178;6.738;2023-03-12T02:17:03;5.43;;;2.97;;
72517;SDS011;60540;51.178;6.738;2023-03-12T02:22:16;6.18;;;3.20;;
72517;SDS011;60540;51.178;6.738;2023-03-12T02:24:53;6.53;;;3.22;;
72517;SDS011;60540;51.178;6.738;2023-03-12T02:27:22;5.00;;;2.67;;
72517;SDS011;60540;51.178;6.738;2023-03-12T02:29:48;6.60;;;3.28;;
72517;SDS011;60540;51.178;6.738;2023-03-12T02:32:22;7.53;;;2.92;;
72517;SDS011;60540;51.178;6.738;2023-03-12T02:34:50;5.63;;;3.00;;
72517;SDS011;60540;51.178;6.738;2023-03-12T02:37:17;8.30;;;3.30;;
72517;SDS011;60540;51.178;6.738;2023-03-12T02:39:43;5.63;;;3.10;;
72517;SDS011;60540;51.178;6.738;2023-03-12T02:42:11;7.72;;;3.22;;
72517;SDS011;60540;51.178;6.738;2023-03-12T02:44:37;4.90;;;2.75;;
72517;SDS011;60540;51.178;6.738;2023-03-12T02:47:03;5.35;;;2.85;;
72517;SDS011;60540;51.178;6.738;2023-03-12T02:49:30;5.32;;;2.92;;
72517;SDS011;60540;51.178;6.738;2023-03-12T02:51:57;5.70;;;2.60;;
72517;SDS011;60540;51.178;6.738;2023-03-12T02:54:23;7.47;;;3.25;;
72517;SDS011;60540;51.178;6.738;2023-03-12T02:56:49;5.25;;;2.85;;
72517;SDS011;60540;51.178;6.738;2023-03-12T02:59:16;5.90;;;2.70;;
72517;SDS011;60540;51.178;6.738;2023-03-12T03:01:42;6.40;;;2.53;;
72517;SDS011;60540;51.178;6.738;2023-03-12T03:04:09;7.82;;;3.00;;
72517;SDS011;60540;51.178;6.738;2023-03-12T03:06:36;5.30;;;2.67;;
72517;SDS011;60540;51.178;6.738;2023-03-12T03:09:03;6.20;;;2.70;;
72517;SDS011;60540;51.178;6.738;2023-03-12T03:11:29;7.70;;;3.78;;
72517;SDS011;60540;51.178;6.738;2023-03-12T03:13:54;6.25;;;2.80;;
72517;SDS011;60540;51.178;6.738;2023-03-12T03:16:20;6.85;;;2.83;;
72517;SDS011;60540;51.178;6.738;2023-03-12T03:18:46;4.90;;;2.50;;
72517;SDS011;60540;51.178;6.738;2023-03-12T03:21:12;4.38;;;2.45;;
72517;SDS011;60540;51.178;6.738;2023-03-12T03:23:41;4.97;;;2.78;;
72517;SDS011;60540;51.178;6.738;2023-03-12T03:26:08;4.75;;;2.45;;
72517;SDS011;60540;51.178;6.738;2023-03-12T03:28:34;6.32;;;2.90;;
72517;SDS011;60540;51.178;6.738;2023-03-12T03:31:00;4.80;;;2.70;;
72517;SDS011;60540;51.178;6.738;2023-03-12T03:33:26;6.53;;;2.60;;
72517;SDS011;60540;51.178;6.738;2023-03-12T03:38:20;5.88;;;2.33;;
72517;SDS011;60540;51.178;6.738;2023-03-12T03:43:12;5.85;;;2.50;;
72517;SDS011;60540;51.178;6.738;2023-03-12T03:45:38;4.60;;;2.42;;
72517;SDS011;60540;51.178;6.738;2023-03-12T03:48:04;10.27;;;3.00;;
72517;SDS011;60540;51.178;6.738;2023-03-12T03:50:30;6.38;;;2.70;;
72517;SDS011;60540;51.178;6.738;2023-03-12T03:52:55;5.15;;;2.90;;
72517;SDS011;60540;51.178;6.738;2023-03-12T03:55:21;7.15;;;3.25;;
72517;SDS011;60540;51.178;6.738;2023-03-12T03:57:47;7.13;;;3.05;;
72517;SDS011;60540;51.178;6.738;2023-03-12T04:00:13;9.10;;;3.13;;
72517;SDS011;60540;51.178;6.738;2023-03-12T04:02:42;6.20;;;2.85;;
72517;SDS011;60540;51.178;6.738;2023-03-12T04:05:09;8.07;;;2.92;;
72517;SDS011;60540;51.178;6.738;2023-03-12T04:07:35;4.25;;;2.40;;
72517;SDS011;60540;51.178;6.738;2023-03-12T04:10:02;3.60;;;2.35;;
72517;SDS011;60540;51.178;6.738;2023-03-12T04:12:28;4.97;;;2.67;;
72517;SDS011;60540;51.178;6.738;2023-03-12T04:14:54;4.85;;;2.42;;
72517;SDS011;60540;51.178;6.738;2023-03-12T04:17:20;5.97;;;2.70;;
72517;SDS011;60540;51.178;6.738;2023-03-12T04:19:46;7.10;;;2.50;;
72517;SDS011;60540;51.178;6.738;2023-03-12T04:22:12;4.93;;;2.35;;
72517;SDS011;60540;51.178;6.738;2023-03-12T04:24:38;5.05;;;2.50;;
72517;SDS011;60540;51.178;6.738;2023-03-12T04:27:04;6.32;;;3.00;;
72517;SDS011;60540;51.178;6.738;2023-03-12T04:29:30;5.03;;;2.47;;
72517;SDS011;60540;51.178;6.738;2023-03-12T04:31:55;6.22;;;2.50;;
72517;SDS011;60540;51.178;6.738;2023-03-12T04:34:21;4.13;;;2.10;;
72517;SDS011;60540;51.178;6.738;2023-03-12T04:36:47;7.88;;;2.65;;
72517;SDS011;60540;51.178;6.738;2023-03-12T04:39:15;5.18;;;2.20;;
72517;SDS011;60540;51.178;6.738;2023-03-12T04:41:42;5.15;;;2.20;;
72517;SDS011;60540;51.178;6.738;2023-03-12T04:44:08;5.47;;;2.70;;
72517;SDS011;60540;51.178;6.738;2023-03-12T04:46:34;7.35;;;2.60;;
72517;SDS011;60540;51.178;6.738;2023-03-12T04:48:59;5.43;;;2.47;;
72517;SDS011;60540;51.178;6.738;2023-03-12T04:51:27;4.55;;;2.40;;
72517;SDS011;60540;51.178;6.738;2023-03-12T04:53:54;4.13;;;1.92;;
72517;SDS011;60540;51.178;6.738;2023-03-12T04:56:20;4.40;;;2.10;;
72517;SDS011;60540;51.178;6.738;2023-03-12T04:58:46;5.10;;;2.45;;
72517;SDS011;60540;51.178;6.738;2023-03-12T05:01:18;6.38;;;2.58;;
72517;SDS011;60540;51.178;6.738;2023-03-12T05:03:46;4.40;;;2.08;;
72517;SDS011;60540;51.178;6.738;2023-03-12T05:06:12;4.57;;;2.33;;
72517;SDS011;60540;51.178;6.738;2023-03-12T05:08:37;5.13;;;2.30;;
72517;SDS011;60540;51.178;6.738;2023-03-12T05:11:03;6.97;;;2.40;;
72517;SDS011;60540;51.178;6.738;2023-03-12T05:13:29;4.72;;;1.95;;
72517;SDS011;60540;51.178;6.738;2023-03-12T05:15:54;4.57;;;2.13;;
72517;SDS011;60540;51.178;6.738;2023-03-12T05:18:20;5.38;;;2.20;;
72517;SDS011;60540;51.178;6.738;2023-03-12T05:20:46;2.88;;;1.60;;
72517;SDS011;60540;51.178;6.738;2023-03-12T05:23:12;5.32;;;2.25;;
72517;SDS011;60540;51.178;6.738;2023-03-12T05:25:38;4.13;;;2.03;;
72517;SDS011;60540;51.178;6.738;2023-03-12T05:28:05;7.75;;;2.42;;
72517;SDS011;60540;51.178;6.738;2023-03-12T05:30:30;10.52;;;2.63;;
72517;SDS011;60540;51.178;6.738;2023-03-12T05:32:56;4.60;;;2.60;;
72517;SDS011;60540;51.178;6.738;2023-03-12T05:35:22;5.18;;;2.70;;
72517;SDS011;60540;51.178;6.738;2023-03-12T05:37:48;6.68;;;2.17;;
72517;SDS011;60540;51.178;6.738;2023-03-12T05:40:13;8.15;;;2.65;;
72517;SDS011;60540;51.178;6.738;2023-03-12T05:42:39;6.57;;;2.40;;
72517;SDS011;60540;51.178;6.738;2023-03-12T05:45:05;6.05;;;2.50;;
72517;SDS011;60540;51.178;6.738;2023-03-12T05:47:31;4.93;;;2.03;;
72517;SDS011;60540;51.178;6.738;2023-03-12T05:49:57;5.60;;;2.17;;
72517;SDS011;60540;51.178;6.738;2023-03-12T05:52:23;5.82;;;2.17;;
72517;SDS011;60540;51.178;6.738;2023-03-12T05:54:50;7.22;;;2.30;;
72517;SDS011;60540;51.178;6.738;2023-03-12T05:57:16;5.78;;;2.05;;
72517;SDS011;60540;51.178;6.738;2023-03-12T05:59:42;5.60;;;1.98;;
72517;SDS011;60540;51.178;6.738;2023-03-12T06:02:08;6.20;;;2.58;;
72517;SDS011;60540;51.178;6.738;2023-03-12T06:04:33;6.65;;;2.17;;
72517;SDS011;60540;51.178;6.738;2023-03-12T06:06:59;5.43;;;2.13;;
72517;SDS011;60540;51.178;6.738;2023-03-12T06:09:25;4.47;;;2.20;;
72517;SDS011;60540;51.178;6.738;2023-03-12T06:11:51;4.43;;;2.30;;
72517;SDS011;60540;51.178;6.738;2023-03-12T06:14:16;4.22;;;2.55;;
72517;SDS011;60540;51.178;6.738;2023-03-12T06:16:42;3.75;;;2.05;;
72517;SDS011;60540;51.178;6.738;2023-03-12T06:19:10;4.20;;;2.28;;
72517;SDS011;60540;51.178;6.738;2023-03-12T06:21:38;6.35;;;2.22;;
72517;SDS011;60540;51.178;6.738;2023-03-12T06:24:04;6.90;;;2.42;;
72517;SDS011;60540;51.178;6.738;2023-03-12T06:26:30;3.92;;;1.92;;
72517;SDS011;60540;51.178;6.738;2023-03-12T06:28:56;5.28;;;1.95;;
72517;SDS011;60540;51.178;6.738;2023-03-12T06:31:22;4.53;;;2.47;;
72517;SDS011;60540;51.178;6.738;2023-03-12T06:33:48;8.40;;;2.88;;
72517;SDS011;60540;51.178;6.738;2023-03-12T06:36:14;4.22;;;2.20;;
72517;SDS011;60540;51.178;6.738;2023-03-12T06:38:40;8.45;;;2.65;;
72517;SDS011;60540;51.178;6.738;2023-03-12T06:41:08;7.00;;;3.13;;
72517;SDS011;60540;51.178;6.738;2023-03-12T06:43:38;6.28;;;3.63;;
72517;SDS011;60540;51.178;6.738;2023-03-12T06:46:06;10.55;;;3.63;;
72517;SDS011;60540;51.178;6.738;2023-03-12T06:48:34;6.95;;;3.42;;
72517;SDS011;60540;51.178;6.738;2023-03-12T06:51:07;6.00;;;2.95;;
72517;SDS011;60540;51.178;6.738;2023-03-12T06:53:33;8.02;;;3.00;;
72517;SDS011;60540;51.178;6.738;2023-03-12T06:55:59;6.78;;;2.90;;
72517;SDS011;60540;51.178;6.738;2023-03-12T06:58:25;6.13;;;2.83;;
72517;SDS011;60540;51.178;6.738;2023-03-12T07:00:51;5.25;;;2.30;;
72517;SDS011;60540;51.178;6.738;2023-03-12T07:03:18;5.20;;;2.67;;
72517;SDS011;60540;51.178;6.738;2023-03-12T07:05:45;6.10;;;2.78;;
72517;SDS011;60540;51.178;6.738;2023-03-12T07:08:11;7.70;;;2.40;;
72517;SDS011;60540;51.178;6.738;2023-03-12T07:10:37;8.48;;;2.35;;
72517;SDS011;60540;51.178;6.738;2023-03-12T07:13:03;4.45;;;2.28;;
72517;SDS011;60540;51.178;6.738;2023-03-12T07:15:29;4.35;;;2.00;;
72517;SDS011;60540;51.178;6.738;2023-03-12T07:17:58;4.00;;;2.10;;
72517;SDS011;60540;51.178;6.738;2023-03-12T07:20:24;6.97;;;2.15;;
72517;SDS011;60540;51.178;6.738;2023-03-12T07:22:50;7.88;;;2.05;;
72517;SDS011;60540;51.178;6.738;2023-03-12T07:25:16;6.03;;;2.53;;
72517;SDS011;60540;51.178;6.738;2023-03-12T07:27:42;3.10;;;1.85;;
72517;SDS011;60540;51.178;6.738;2023-03-12T07:30:08;4.43;;;1.85;;
72517;SDS011;60540;51.178;6.738;2023-03-12T07:32:34;4.10;;;2.05;;
72517;SDS011;60540;51.178;6.738;2023-03-12T07:35:02;4.57;;;2.38;;
72517;SDS011;60540;51.178;6.738;2023-03-12T07:37:28;4.55;;;2.30;;
72517;SDS011;60540;51.178;6.738;2023-03-12T07:39:54;4.40;;;2.17;;
72517;SDS011;60540;51.178;6.738;2023-03-12T07:42:20;4.85;;;2.17;;
72517;SDS011;60540;51.178;6.738;2023-03-12T07:44:46;4.45;;;2.10;;
72517;SDS011;60540;51.178;6.738;2023-03-12T07:47:12;6.75;;;1.90;;
72517;SDS011;60540;51.178;6.738;2023-03-12T07:49:38;4.88;;;2.15;;
72517;SDS011;60540;51.178;6.738;2023-03-12T07:54:34;4.88;;;2.50;;
72517;SDS011;60540;51.178;6.738;2023-03-12T07:57:00;4.50;;;2.00;;
72517;SDS011;60540;51.178;6.738;2023-03-12T07:59:26;6.75;;;2.60;;
72517;SDS011;60540;51.178;6.738;2023-03-12T08:01:52;5.55;;;2.33;;
72517;SDS011;60540;51.178;6.738;2023-03-12T08:04:18;4.57;;;2.17;;
72517;SDS011;60540;51.178;6.738;2023-03-12T08:06:44;6.55;;;2.55;;
72517;SDS011;60540;51.178;6.738;2023-03-12T08:09:10;8.55;;;2.63;;
72517;SDS011;60540;51.178;6.738;2023-03-12T08:11:36;6.13;;;2.38;;
72517;SDS011;60540;51.178;6.738;2023-03-12T08:14:02;5.40;;;2.53;;
72517;SDS011;60540;51.178;6.738;2023-03-12T08:16:29;6.88;;;2.53;;
72517;SDS011;60540;51.178;6.738;2023-03-12T08:18:55;5.65;;;3.05;;
72517;SDS011;60540;51.178;6.738;2023-03-12T08:21:21;5.07;;;2.03;;
72517;SDS011;60540;51.178;6.738;2023-03-12T08:23:47;4.85;;;2.28;;
72517;SDS011;60540;51.178;6.738;2023-03-12T08:26:13;5.55;;;2.60;;
72517;SDS011;60540;51.178;6.738;2023-03-12T08:28:38;5.38;;;2.42;;
72517;SDS011;60540;51.178;6.738;2023-03-12T08:31:05;5.10;;;2.42;;
72517;SDS011;60540;51.178;6.738;2023-03-12T08:33:30;6.15;;;2.20;;
72517;SDS011;60540;51.178;6.738;2023-03-12T08:35:56;5.22;;;2.70;;
72517;SDS011;60540;51.178;6.738;2023-03-12T08:38:22;4.10;;;2.33;;
72517;SDS011;60540;51.178;6.738;2023-03-12T08:40:58;5.80;;;2.35;;
72517;SDS011;60540;51.178;6.738;2023-03-12T08:43:24;11.00;;;3.17;;
72517;SDS011;60540;51.178;6.738;2023-03-12T08:45:57;8.68;;;2.67;;
72517;SDS011;60540;51.178;6.738;2023-03-12T08:48:24;7.80;;;3.03;;
72517;SDS011;60540;51.178;6.738;2023-03-12T08:50:50;5.13;;;2.93;;
72517;SDS011;60540;51.178;6.738;2023-03-12T08:53:16;9.02;;;2.90;;
72517;SDS011;60540;51.178;6.738;2023-03-12T08:55:42;4.07;;;2.40;;
72517;SDS011;60540;51.178;6.738;2023-03-12T08:58:08;6.25;;;2.40;;
72517;SDS011;60540;51.178;6.738;2023-03-12T09:00:34;5.53;;;2.75;;
72517;SDS011;60540;51.178;6.738;2023-03-12T09:03:00;7.40;;;3.15;;
72517;SDS011;60540;51.178;6.738;2023-03-12T09:05:26;5.95;;;3.17;;
72517;SDS011;60540;51.178;6.738;2023-03-12T09:07:55;8.60;;;3.35;;
72517;SDS011;60540;51.178;6.738;2023-03-12T09:10:22;5.50;;;2.67;;
72517;SDS011;60540;51.178;6.738;2023-03-12T09:12:48;7.22;;;3.22;;
72517;SDS011;60540;51.178;6.738;2023-03-12T09:15:14;6.40;;;3.30;;
72517;SDS011;60540;51.178;6.738;2023-03-12T09:17:39;6.90;;;3.40;;
72517;SDS011;60540;51.178;6.738;2023-03-12T09:20:06;6.65;;;3.42;;
72517;SDS011;60540;51.178;6.738;2023-03-12T09:22:36;7.45;;;3.55;;
72517;SDS011;60540;51.178;6.738;2023-03-12T09:25:03;8.75;;;3.67;;
72517;SDS011;60540;51.178;6.738;2023-03-12T09:27:30;5.97;;;3.08;;
72517;SDS011;60540;51.178;6.738;2023-03-12T09:30:00;8.35;;;3.60;;
72517;SDS011;60540;51.178;6.738;2023-03-12T09:32:26;6.82;;;3.75;;
72517;SDS011;60540;51.178;6.738;2023-03-12T09:34:53;7.15;;;3.80;;
72517;SDS011;60540;51.178;6.738;2023-03-12T09:37:19;5.10;;;3.28;;
72517;SDS011;60540;51.178;6.738;2023-03-12T09:39:45;6.00;;;3.83;;
72517;SDS011;60540;51.178;6.738;2023-03-12T09:42:14;5.88;;;3.85;;
72517;SDS011;60540;51.178;6.738;2023-03-12T09:47:28;9.27;;;3.90;;
72517;SDS011;60540;51.178;6.738;2023-03-12T09:50:07;9.68;;;4.57;;
72517;SDS011;60540;51.178;6.738;2023-03-12T09:53:10;8.18;;;3.67;;
72517;SDS011;60540;51.178;6.738;2023-03-12T09:55:39;8.48;;;3.95;;
72517;SDS011;60540;51.178;6.738;2023-03-12T09:58:24;7.50;;;4.03;;
72517;SDS011;60540;51.178;6.738;2023-03-12T10:01:05;8.20;;;4.15;;
72517;SDS011;60540;51.178;6.738;2023-03-12T10:04:08;6.97;;;3.92;;
72517;SDS011;60540;51.178;6.738;2023-03-12T10:11:53;9.20;;;4.40;;
72517;SDS011;60540;51.178;6.738;2023-03-12T10:17:16;7.03;;;4.43;;
72517;SDS011;60540;51.178;6.738;2023-03-12T10:19:58;7.72;;;5.00;;
72517;SDS011;60540;51.178;6.738;2023-03-12T10:22:45;7.35;;;4.43;;
72517;SDS011;60540;51.178;6.738;2023-03-12T10:25:40;7.20;;;4.35;;
72517;SDS011;60540;51.178;6.738;2023-03-12T10:28:54;8.45;;;4.50;;
72517;SDS011;60540;51.178;6.738;2023-03-12T10:30:54;8.20;;;4.20;;
72517;SDS011;60540;51.178;6.738;2023-03-12T10:33:23;9.63;;;4.57;;
72517;SDS011;60540;51.178;6.738;2023-03-12T10:35:50;10.50;;;5.47;;
72517;SDS011;60540;51.178;6.738;2023-03-12T10:38:19;7.95;;;4.90;;
72517;SDS011;60540;51.178;6.738;2023-03-12T10:40:49;9.05;;;4.75;;
72517;SDS011;60540;51.178;6.738;2023-03-12T10:43:15;9.23;;;5.18;;
72517;SDS011;60540;51.178;6.738;2023-03-12T10:45:46;8.55;;;5.07;;
72517;SDS011;60540;51.178;6.738;2023-03-12T10:48:34;9.35;;;4.90;;
72517;SDS011;60540;51.178;6.738;2023-03-12T10:53:35;7.90;;;5.05;;
72517;SDS011;60540;51.178;6.738;2023-03-12T10:58:30;8.60;;;4.88;;
72517;SDS011;60540;51.178;6.738;2023-03-12T11:01:15;8.68;;;5.25;;
72517;SDS011;60540;51.178;6.738;2023-03-12T11:03:41;10.90;;;5.32;;
72517;SDS011;60540;51.178;6.738;2023-03-12T11:06:08;8.82;;;5.00;;
72517;SDS011;60540;51.178;6.738;2023-03-12T11:08:40;11.48;;;5.28;;
72517;SDS011;60540;51.178;6.738;2023-03-12T11:11:06;11.23;;;5.28;;
72517;SDS011;60540;51.178;6.738;2023-03-12T11:16:02;10.23;;;4.93;;
72517;SDS011;60540;51.178;6.738;2023-03-12T11:18:34;8.07;;;4.78;;
72517;SDS011;60540;51.178;6.738;2023-03-12T11:23:33;10.63;;;5.95;;
72517;SDS011;60540;51.178;6.738;2023-03-12T11:26:02;9.10;;;5.20;;
72517;SDS011;60540;51.178;6.738;2023-03-12T11:28:33;8.15;;;5.35;;
72517;SDS011;60540;51.178;6.738;2023-03-12T11:31:08;8.70;;;4.85;;
72517;SDS011;60540;51.178;6.738;2023-03-12T11:33:38;9.82;;;6.03;;
72517;SDS011;60540;51.178;6.738;2023-03-12T11:38:39;10.52;;;5.78;;
72517;SDS011;60540;51.178;6.738;2023-03-12T11:51:55;15.30;;;6.93;;
72517;SDS011;60540;51.178;6.738;2023-03-12T11:57:27;14.43;;;7.50;;
72517;SDS011;60540;51.178;6.738;2023-03-12T12:00:08;14.57;;;7.20;;
72517;SDS011;60540;51.178;6.738;2023-03-12T12:02:48;14.25;;;6.88;;
72517;SDS011;60540;51.178;6.738;2023-03-12T12:13:36;25.83;;;7.30;;
72517;SDS011;60540;51.178;6.738;2023-03-12T12:16:14;21.92;;;7.88;;
72517;SDS011;60540;51.178;6.738;2023-03-12T12:18:50;28.92;;;9.20;;
72517;SDS011;60540;51.178;6.738;2023-03-12T12:26:58;29.52;;;7.88;;
72517;SDS011;60540;51.178;6.738;2023-03-12T12:32:25;22.77;;;7.18;;
72517;SDS011;60540;51.178;6.738;2023-03-12T12:42:51;18.55;;;6.70;;
72517;SDS011;60540;51.178;6.738;2023-03-12T12:45:22;20.27;;;5.93;;
72517;SDS011;60540;51.178;6.738;2023-03-12T12:47:53;18.58;;;6.18;;
72517;SDS011;60540;51.178;6.738;2023-03-12T12:50:23;23.70;;;6.63;;
72517;SDS011;60540;51.178;6.738;2023-03-12T12:53:02;17.75;;;5.50;;
72517;SDS011;60540;51.178;6.738;2023-03-12T12:55:37;16.83;;;6.10;;
72517;SDS011;60540;51.178;6.738;2023-03-12T12:58:12;19.23;;;5.75;;
72517;SDS011;60540;51.178;6.738;2023-03-12T13:03:20;22.48;;;5.55;;
72517;SDS011;60540;51.178;6.738;2023-03-12T13:11:49;17.38;;;4.15;;
72517;SDS011;60540;51.178;6.738;2023-03-12T13:16:41;13.18;;;3.80;;
72517;SDS011;60540;51.178;6.738;2023-03-12T13:21:40;12.05;;;3.47;;
72517;SDS011;60540;51.178;6.738;2023-03-12T13:26:58;12.55;;;4.25;;
72517;SDS011;60540;51.178;6.738;2023-03-12T13:31:54;14.20;;;3.63;;
72517;SDS011;60540;51.178;6.738;2023-03-12T13:36:46;12.18;;;3.13;;
72517;SDS011;60540;51.178;6.738;2023-03-12T13:46:47;13.50;;;3.50;;
72517;SDS011;60540;51.178;6.738;2023-03-12T13:49:18;12.60;;;3.28;;
72517;SDS011;60540;51.178;6.738;2023-03-12T13:51:46;13.25;;;2.75;;
72517;SDS011;60540;51.178;6.738;2023-03-12T13:54:22;17.30;;;5.22;;
72517;SDS011;60540;51.178;6.738;2023-03-12T13:56:59;13.30;;;3.45;;
72517;SDS011;60540;51.178;6.738;2023-03-12T13:59:27;16.58;;;3.33;;
72517;SDS011;60540;51.178;6.738;2023-03-12T14:01:58;12.25;;;2.97;;
72517;SDS011;60540;51.178;6.738;2023-03-12T14:04:32;10.75;;;3.25;;
72517;SDS011;60540;51.178;6.738;2023-03-12T14:15:26;13.77;;;3.10;;
72517;SDS011;60540;51.178;6.738;2023-03-12T14:17:57;10.15;;;2.80;;
72517;SDS011;60540;51.178;6.738;2023-03-12T14:20:25;13.68;;;2.40;;
72517;SDS011;60540;51.178;6.738;2023-03-12T14:22:53;9.82;;;2.47;;
72517;SDS011;60540;51.178;6.738;2023-03-12T14:25:33;16.42;;;3.05;;
72517;SDS011;60540;51.178;6.738;2023-03-12T14:28:00;9.10;;;3.00;;
72517;SDS011;60540;51.178;6.738;2023-03-12T14:30:30;14.43;;;2.92;;
72517;SDS011;60540;51.178;6.738;2023-03-12T14:33:04;13.35;;;2.53;;
72517;SDS011;60540;51.178;6.738;2023-03-12T14:35:32;10.05;;;2.90;;
72517;SDS011;60540;51.178;6.738;2023-03-12T14:38:03;10.40;;;2.10;;
72517;SDS011;60540;51.178;6.738;2023-03-12T14:40:39;13.70;;;2.80;;
72517;SDS011;60540;51.178;6.738;2023-03-12T14:43:27;13.95;;;3.22;;
72517;SDS011;60540;51.178;6.738;2023-03-12T14:46:02;9.98;;;2.50;;
72517;SDS011;60540;51.178;6.738;2023-03-12T14:48:31;15.02;;;2.95;;
72517;SDS011;60540;51.178;6.738;2023-03-12T14:50:59;8.45;;;2.38;;
72517;SDS011;60540;51.178;6.738;2023-03-12T14:53:26;9.57;;;2.85;;
72517;SDS011;60540;51.178;6.738;2023-03-12T14:55:58;13.27;;;2.67;;
72517;SDS011;60540;51.178;6.738;2023-03-12T14:58:24;11.52;;;2.72;;
72517;SDS011;60540;51.178;6.738;2023-03-12T15:01:01;17.55;;;3.10;;
72517;SDS011;60540;51.178;6.738;2023-03-12T15:03:29;15.50;;;2.92;;
72517;SDS011;60540;51.178;6.738;2023-03-12T15:05:55;13.30;;;3.38;;
72517;SDS011;60540;51.178;6.738;2023-03-12T15:08:21;15.43;;;2.97;;
72517;SDS011;60540;51.178;6.738;2023-03-12T15:10:48;15.55;;;3.67;;
72517;SDS011;60540;51.178;6.738;2023-03-12T15:13:15;11.13;;;2.63;;
72517;SDS011;60540;51.178;6.738;2023-03-12T15:15:43;14.73;;;2.97;;
72517;SDS011;60540;51.178;6.738;2023-03-12T15:18:12;12.68;;;2.30;;
72517;SDS011;60540;51.178;6.738;2023-03-12T15:20:41;15.27;;;2.95;;
72517;SDS011;60540;51.178;6.738;2023-03-12T15:23:08;15.10;;;3.00;;
72517;SDS011;60540;51.178;6.738;2023-03-12T15:25:36;18.77;;;2.97;;
72517;SDS011;60540;51.178;6.738;2023-03-12T15:28:04;11.52;;;3.10;;
72517;SDS011;60540;51.178;6.738;2023-03-12T15:31:03;11.45;;;2.90;;
72517;SDS011;60540;51.178;6.738;2023-03-12T15:33:33;19.20;;;3.33;;
72517;SDS011;60540;51.178;6.738;2023-03-12T15:36:15;13.48;;;3.65;;
72517;SDS011;60540;51.178;6.738;2023-03-12T15:38:45;15.02;;;2.92;;
72517;SDS011;60540;51.178;6.738;2023-03-12T15:41:20;15.73;;;3.13;;
72517;SDS011;60540;51.178;6.738;2023-03-12T15:44:00;18.48;;;3.70;;
72517;SDS011;60540;51.178;6.738;2023-03-12T15:46:26;16.20;;;3.30;;
72517;SDS011;60540;51.178;6.738;2023-03-12T15:48:53;20.40;;;5.55;;
72517;SDS011;60540;51.178;6.738;2023-03-12T15:51:28;11.07;;;2.70;;
72517;SDS011;60540;51.178;6.738;2023-03-12T15:54:02;12.98;;;3.08;;
72517;SDS011;60540;51.178;6.738;2023-03-12T15:56:31;22.23;;;3.25;;
72517;SDS011;60540;51.178;6.738;2023-03-12T15:59:02;10.57;;;2.47;;
72517;SDS011;60540;51.178;6.738;2023-03-12T16:01:49;10.80;;;2.47;;
72517;SDS011;60540;51.178;6.738;2023-03-12T16:04:17;11.90;;;3.50;;
72517;SDS011;60540;51.178;6.738;2023-03-12T16:06:47;16.50;;;2.92;;
72517;SDS011;60540;51.178;6.738;2023-03-12T16:09:17;12.20;;;2.50;;
72517;SDS011;60540;51.178;6.738;2023-03-12T16:11:45;15.13;;;3.83;;
72517;SDS011;60540;51.178;6.738;2023-03-12T16:14:14;18.20;;;3.42;;
72517;SDS011;60540;51.178;6.738;2023-03-12T16:16:42;14.63;;;2.70;;
72517;SDS011;60540;51.178;6.738;2023-03-12T16:19:12;10.18;;;2.78;;
72517;SDS011;60540;51.178;6.738;2023-03-12T16:21:45;15.98;;;3.67;;
72517;SDS011;60540;51.178;6.738;2023-03-12T16:24:11;13.50;;;2.75;;
72517;SDS011;60540;51.178;6.738;2023-03-12T16:26:44;16.05;;;2.92;;
72517;SDS011;60540;51.178;6.738;2023-03-12T16:29:13;12.00;;;2.20;;
72517;SDS011;60540;51.178;6.738;2023-03-12T16:31:40;12.43;;;2.65;;
72517;SDS011;60540;51.178;6.738;2023-03-12T16:34:08;11.88;;;2.35;;
72517;SDS011;60540;51.178;6.738;2023-03-12T16:36:34;16.85;;;3.38;;
72517;SDS011;60540;51.178;6.738;2023-03-12T16:39:00;13.55;;;2.58;;
72517;SDS011;60540;51.178;6.738;2023-03-12T16:41:26;13.77;;;3.13;;